sensor_id;sensor_type;location;lat;lon;timestamp;temperature;humidity
46416;DHT22;32620;51.704;7.822;2022-08-20T00:00:28;19.60;99.90
46416;DHT22;32620;51.704;7.822;2022-08-20T00:02:55;19.60;99.90
46416;DHT22;32620;51.704;7.822;2022-08-20T00:05:22;19.70;99.90
46416;DHT22;32620;51.704;7.822;2022-08-20T00:07:48;19.70;99.90
46416;DHT22;32620;51.704;7.822;2022-08-20T00:10:14;19.70;99.90
46416;DHT22;32620;51.704;7.822;2022-08-20T00:12:46;19.70;99.90
46416;DHT22;32620;51.704;7.822;2022-08-20T00:15:13;19.70;99.90
46416;DHT22;32620;51.704;7.822;2022-08-20T00:17:39;19.60;99.90
46416;DHT22;32620;51.704;7.822;2022-08-20T00:20:06;19.60;99.90
46416;DHT22;32620;51.704;7.822;2022-08-20T00:22:33;19.60;99.90
46416;DHT22;32620;51.704;7.822;2022-08-20T00:24:58;19.60;99.90
46416;DHT22;32620;51.704;7.822;2022-08-20T00:27:24;19.60;99.90
46416;DHT22;32620;51.704;7.822;2022-08-20T00:29:49;19.50;99.90
46416;DHT22;32620;51.704;7.822;2022-08-20T00:32:15;19.50;99.90
46416;DHT22;32620;51.704;7.822;2022-08-20T00:34:40;19.50;99.90
46416;DHT22;32620;51.704;7.822;2022-08-20T00:37:07;19.50;99.90
46416;DHT22;32620;51.704;7.822;2022-08-20T00:39:33;19.50;99.90
46416;DHT22;32620;51.704;7.822;2022-08-20T00:41:59;19.40;99.90
46416;DHT22;32620;51.704;7.822;2022-08-20T00:44:24;19.40;99.90
46416;DHT22;32620;51.704;7.822;2022-08-20T00:46:50;19.40;99.90
46416;DHT22;32620;51.704;7.822;2022-08-20T00:49:18;19.40;99.90
46416;DHT22;32620;51.704;7.822;2022-08-20T00:51:45;19.40;99.90
46416;DHT22;32620;51.704;7.822;2022-08-20T00:54:14;19.50;99.90
46416;DHT22;32620;51.704;7.822;2022-08-20T00:56:41;19.50;99.90
46416;DHT22;32620;51.704;7.822;2022-08-20T00:59:09;19.50;99.90
46416;DHT22;32620;51.704;7.822;2022-08-20T01:01:37;19.50;99.90
46416;DHT22;32620;51.704;7.822;2022-08-20T01:04:03;19.50;99.90
46416;DHT22;32620;51.704;7.822;2022-08-20T01:06:29;19.50;99.90
46416;DHT22;32620;51.704;7.822;2022-08-20T01:08:55;19.50;99.90
46416;DHT22;32620;51.704;7.822;2022-08-20T01:11:20;19.50;99.90
46416;DHT22;32620;51.704;7.822;2022-08-20T01:13:53;19.60;99.90
46416;DHT22;32620;51.704;7.822;2022-08-20T01:16:23;19.60;99.90
46416;DHT22;32620;51.704;7.822;2022-08-20T01:18:50;19.60;99.90
46416;DHT22;32620;51.704;7.822;2022-08-20T01:21:16;19.60;99.90
46416;DHT22;32620;51.704;7.822;2022-08-20T01:26:20;19.60;99.90
46416;DHT22;32620;51.704;7.822;2022-08-20T01:28:50;19.60;99.90
46416;DHT22;32620;51.704;7.822;2022-08-20T01:31:18;19.60;99.90
46416;DHT22;32620;51.704;7.822;2022-08-20T01:33:44;19.60;99.90
46416;DHT22;32620;51.704;7.822;2022-08-20T01:36:10;19.60;99.90
46416;DHT22;32620;51.704;7.822;2022-08-20T01:38:36;19.60;99.90
46416;DHT22;32620;51.704;7.822;2022-08-20T01:43:33;19.50;99.90
46416;DHT22;32620;51.704;7.822;2022-08-20T01:45:59;19.50;99.90
46416;DHT22;32620;51.704;7.822;2022-08-20T01:48:25;19.50;99.90
46416;DHT22;32620;51.704;7.822;2022-08-20T01:51:07;19.40;99.90
46416;DHT22;32620;51.704;7.822;2022-08-20T01:53:35;19.50;99.90
46416;DHT22;32620;51.704;7.822;2022-08-20T01:56:02;19.50;99.90
46416;DHT22;32620;51.704;7.822;2022-08-20T01:58:28;19.50;99.90
46416;DHT22;32620;51.704;7.822;2022-08-20T02:00:54;19.50;99.90
46416;DHT22;32620;51.704;7.822;2022-08-20T02:03:20;19.50;99.90
46416;DHT22;32620;51.704;7.822;2022-08-20T02:05:46;19.40;99.90
46416;DHT22;32620;51.704;7.822;2022-08-20T02:08:11;19.50;99.90
46416;DHT22;32620;51.704;7.822;2022-08-20T02:10:37;19.50;99.90
46416;DHT22;32620;51.704;7.822;2022-08-20T02:13:03;19.40;99.90
46416;DHT22;32620;51.704;7.822;2022-08-20T02:15:29;19.40;99.90
46416;DHT22;32620;51.704;7.822;2022-08-20T02:17:55;19.50;99.90
46416;DHT22;32620;51.704;7.822;2022-08-20T02:20:23;19.40;99.90
46416;DHT22;32620;51.704;7.822;2022-08-20T02:22:52;19.30;99.90
46416;DHT22;32620;51.704;7.822;2022-08-20T02:25:19;19.20;99.90
46416;DHT22;32620;51.704;7.822;2022-08-20T02:27:46;19.20;99.90
46416;DHT22;32620;51.704;7.822;2022-08-20T02:30:14;19.10;99.90
46416;DHT22;32620;51.704;7.822;2022-08-20T02:32:40;19.00;99.90
46416;DHT22;32620;51.704;7.822;2022-08-20T02:35:06;19.00;99.90
46416;DHT22;32620;51.704;7.822;2022-08-20T02:37:34;18.90;99.90
46416;DHT22;32620;51.704;7.822;2022-08-20T02:40:00;18.80;99.90
46416;DHT22;32620;51.704;7.822;2022-08-20T02:42:26;18.70;99.90
46416;DHT22;32620;51.704;7.822;2022-08-20T02:44:51;18.70;99.90
46416;DHT22;32620;51.704;7.822;2022-08-20T02:47:18;18.70;99.90
46416;DHT22;32620;51.704;7.822;2022-08-20T02:49:43;18.70;99.90
46416;DHT22;32620;51.704;7.822;2022-08-20T02:52:09;18.60;99.90
46416;DHT22;32620;51.704;7.822;2022-08-20T02:54:34;18.60;99.90
46416;DHT22;32620;51.704;7.822;2022-08-20T02:57:01;18.60;99.90
46416;DHT22;32620;51.704;7.822;2022-08-20T02:59:27;18.70;99.90
46416;DHT22;32620;51.704;7.822;2022-08-20T03:01:53;18.60;99.90
46416;DHT22;32620;51.704;7.822;2022-08-20T03:04:18;18.60;99.90
46416;DHT22;32620;51.704;7.822;2022-08-20T03:06:44;18.50;99.90
46416;DHT22;32620;51.704;7.822;2022-08-20T03:09:09;18.50;99.90
46416;DHT22;32620;51.704;7.822;2022-08-20T03:11:35;18.50;99.90
46416;DHT22;32620;51.704;7.822;2022-08-20T03:14:03;18.50;99.90
46416;DHT22;32620;51.704;7.822;2022-08-20T03:16:30;18.50;99.90
46416;DHT22;32620;51.704;7.822;2022-08-20T03:18:55;18.50;99.90
46416;DHT22;32620;51.704;7.822;2022-08-20T03:21:21;18.50;99.90
46416;DHT22;32620;51.704;7.822;2022-08-20T03:23:47;18.50;99.90
46416;DHT22;32620;51.704;7.822;2022-08-20T03:26:12;18.50;99.90
46416;DHT22;32620;51.704;7.822;2022-08-20T03:28:38;18.50;99.90
46416;DHT22;32620;51.704;7.822;2022-08-20T03:31:04;18.50;99.90
46416;DHT22;32620;51.704;7.822;2022-08-20T03:33:29;18.50;99.90
46416;DHT22;32620;51.704;7.822;2022-08-20T03:35:56;18.50;99.90
46416;DHT22;32620;51.704;7.822;2022-08-20T03:38:22;18.50;99.90
46416;DHT22;32620;51.704;7.822;2022-08-20T03:40:48;18.50;99.90
46416;DHT22;32620;51.704;7.822;2022-08-20T03:43:14;18.40;99.90
46416;DHT22;32620;51.704;7.822;2022-08-20T03:45:40;18.50;99.90
46416;DHT22;32620;51.704;7.822;2022-08-20T03:48:08;18.50;99.90
46416;DHT22;32620;51.704;7.822;2022-08-20T03:50:34;18.40;99.90
46416;DHT22;32620;51.704;7.822;2022-08-20T03:53:00;18.50;99.90
46416;DHT22;32620;51.704;7.822;2022-08-20T03:55:27;18.50;99.90
46416;DHT22;32620;51.704;7.822;2022-08-20T03:57:54;18.50;99.90
46416;DHT22;32620;51.704;7.822;2022-08-20T04:00:22;18.50;99.90
46416;DHT22;32620;51.704;7.822;2022-08-20T04:02:48;18.50;99.90
46416;DHT22;32620;51.704;7.822;2022-08-20T04:05:13;18.50;99.90
46416;DHT22;32620;51.704;7.822;2022-08-20T04:07:39;18.50;99.90
46416;DHT22;32620;51.704;7.822;2022-08-20T04:10:06;18.50;99.90
46416;DHT22;32620;51.704;7.822;2022-08-20T04:12:33;18.50;99.90
46416;DHT22;32620;51.704;7.822;2022-08-20T04:14:58;18.60;99.90
46416;DHT22;32620;51.704;7.822;2022-08-20T04:17:24;18.60;99.90
46416;DHT22;32620;51.704;7.822;2022-08-20T04:19:50;18.60;99.90
46416;DHT22;32620;51.704;7.822;2022-08-20T04:22:16;18.70;99.90
46416;DHT22;32620;51.704;7.822;2022-08-20T04:24:41;18.60;99.90
46416;DHT22;32620;51.704;7.822;2022-08-20T04:27:07;18.70;99.90
46416;DHT22;32620;51.704;7.822;2022-08-20T04:29:33;18.60;99.90
46416;DHT22;32620;51.704;7.822;2022-08-20T04:32:00;18.70;99.90
46416;DHT22;32620;51.704;7.822;2022-08-20T04:34:26;18.70;99.90
46416;DHT22;32620;51.704;7.822;2022-08-20T04:36:53;18.70;99.90
46416;DHT22;32620;51.704;7.822;2022-08-20T04:39:19;18.70;99.90
46416;DHT22;32620;51.704;7.822;2022-08-20T04:41:44;18.70;99.90
46416;DHT22;32620;51.704;7.822;2022-08-20T04:44:10;18.70;99.90
46416;DHT22;32620;51.704;7.822;2022-08-20T04:46:36;18.80;99.90
46416;DHT22;32620;51.704;7.822;2022-08-20T04:49:02;18.80;99.90
46416;DHT22;32620;51.704;7.822;2022-08-20T04:51:28;18.80;99.90
46416;DHT22;32620;51.704;7.822;2022-08-20T04:53:54;18.80;99.90
46416;DHT22;32620;51.704;7.822;2022-08-20T04:56:21;18.80;99.90
46416;DHT22;32620;51.704;7.822;2022-08-20T04:58:47;18.80;99.90
46416;DHT22;32620;51.704;7.822;2022-08-20T05:01:14;18.80;99.90
46416;DHT22;32620;51.704;7.822;2022-08-20T05:03:40;18.80;99.90
46416;DHT22;32620;51.704;7.822;2022-08-20T05:06:06;18.90;99.90
46416;DHT22;32620;51.704;7.822;2022-08-20T05:08:32;18.90;99.90
46416;DHT22;32620;51.704;7.822;2022-08-20T05:10:58;18.90;99.90
46416;DHT22;32620;51.704;7.822;2022-08-20T05:13:24;18.90;99.90
46416;DHT22;32620;51.704;7.822;2022-08-20T05:15:50;18.90;99.90
46416;DHT22;32620;51.704;7.822;2022-08-20T05:18:17;18.90;99.90
46416;DHT22;32620;51.704;7.822;2022-08-20T05:20:44;18.90;99.90
46416;DHT22;32620;51.704;7.822;2022-08-20T05:23:10;18.90;99.90
46416;DHT22;32620;51.704;7.822;2022-08-20T05:25:36;18.90;99.90
46416;DHT22;32620;51.704;7.822;2022-08-20T05:28:04;19.00;99.90
46416;DHT22;32620;51.704;7.822;2022-08-20T05:30:31;19.00;99.90
46416;DHT22;32620;51.704;7.822;2022-08-20T05:32:58;19.00;99.90
46416;DHT22;32620;51.704;7.822;2022-08-20T05:35:24;19.00;99.90
46416;DHT22;32620;51.704;7.822;2022-08-20T05:37:49;19.00;99.90
46416;DHT22;32620;51.704;7.822;2022-08-20T05:40:15;19.00;99.90
46416;DHT22;32620;51.704;7.822;2022-08-20T05:42:40;19.00;99.90
46416;DHT22;32620;51.704;7.822;2022-08-20T05:45:07;19.10;99.90
46416;DHT22;32620;51.704;7.822;2022-08-20T05:47:33;19.10;99.90
46416;DHT22;32620;51.704;7.822;2022-08-20T05:49:58;19.20;99.90
46416;DHT22;32620;51.704;7.822;2022-08-20T05:52:26;19.30;99.90
46416;DHT22;32620;51.704;7.822;2022-08-20T05:54:53;19.40;99.90
46416;DHT22;32620;51.704;7.822;2022-08-20T05:57:19;19.50;99.90
46416;DHT22;32620;51.704;7.822;2022-08-20T05:59:45;19.50;99.90
46416;DHT22;32620;51.704;7.822;2022-08-20T06:02:11;19.40;99.90
46416;DHT22;32620;51.704;7.822;2022-08-20T06:04:56;19.40;99.90
46416;DHT22;32620;51.704;7.822;2022-08-20T06:07:22;19.40;99.90
46416;DHT22;32620;51.704;7.822;2022-08-20T06:09:47;19.40;99.90
46416;DHT22;32620;51.704;7.822;2022-08-20T06:12:13;19.40;99.90
46416;DHT22;32620;51.704;7.822;2022-08-20T06:14:38;19.30;99.90
46416;DHT22;32620;51.704;7.822;2022-08-20T06:17:06;19.40;99.90
46416;DHT22;32620;51.704;7.822;2022-08-20T06:19:32;19.40;99.90
46416;DHT22;32620;51.704;7.822;2022-08-20T06:21:58;19.40;99.90
46416;DHT22;32620;51.704;7.822;2022-08-20T06:24:24;19.50;99.90
46416;DHT22;32620;51.704;7.822;2022-08-20T06:26:57;19.40;99.90
46416;DHT22;32620;51.704;7.822;2022-08-20T06:29:22;19.50;99.90
46416;DHT22;32620;51.704;7.822;2022-08-20T06:31:48;19.60;99.90
46416;DHT22;32620;51.704;7.822;2022-08-20T06:34:13;19.60;99.90
46416;DHT22;32620;51.704;7.822;2022-08-20T06:36:39;19.70;99.90
46416;DHT22;32620;51.704;7.822;2022-08-20T06:39:04;19.80;99.90
46416;DHT22;32620;51.704;7.822;2022-08-20T06:41:30;19.90;99.90
46416;DHT22;32620;51.704;7.822;2022-08-20T06:43:56;19.90;99.90
46416;DHT22;32620;51.704;7.822;2022-08-20T06:46:22;19.90;99.90
46416;DHT22;32620;51.704;7.822;2022-08-20T06:48:48;20.10;99.90
46416;DHT22;32620;51.704;7.822;2022-08-20T06:51:14;20.20;99.90
46416;DHT22;32620;51.704;7.822;2022-08-20T06:53:40;20.50;99.90
46416;DHT22;32620;51.704;7.822;2022-08-20T06:56:05;21.30;99.90
46416;DHT22;32620;51.704;7.822;2022-08-20T06:58:30;21.90;99.90
46416;DHT22;32620;51.704;7.822;2022-08-20T07:00:56;22.00;99.90
46416;DHT22;32620;51.704;7.822;2022-08-20T07:03:22;22.00;99.90
46416;DHT22;32620;51.704;7.822;2022-08-20T07:05:47;21.70;99.90
46416;DHT22;32620;51.704;7.822;2022-08-20T07:08:14;21.50;99.90
46416;DHT22;32620;51.704;7.822;2022-08-20T07:10:41;21.30;99.90
46416;DHT22;32620;51.704;7.822;2022-08-20T07:13:08;21.20;99.90
46416;DHT22;32620;51.704;7.822;2022-08-20T07:15:34;21.20;99.90
46416;DHT22;32620;51.704;7.822;2022-08-20T07:18:00;21.20;99.90
46416;DHT22;32620;51.704;7.822;2022-08-20T07:20:28;21.20;99.90
46416;DHT22;32620;51.704;7.822;2022-08-20T07:22:54;21.10;99.90
46416;DHT22;32620;51.704;7.822;2022-08-20T07:25:20;21.00;99.90
46416;DHT22;32620;51.704;7.822;2022-08-20T07:27:46;21.00;99.90
46416;DHT22;32620;51.704;7.822;2022-08-20T07:30:14;21.20;99.90
46416;DHT22;32620;51.704;7.822;2022-08-20T07:33:00;21.30;99.90
46416;DHT22;32620;51.704;7.822;2022-08-20T07:35:26;21.50;99.90
46416;DHT22;32620;51.704;7.822;2022-08-20T07:37:51;21.70;99.90
46416;DHT22;32620;51.704;7.822;2022-08-20T07:40:21;21.50;99.90
46416;DHT22;32620;51.704;7.822;2022-08-20T07:42:47;21.60;99.90
46416;DHT22;32620;51.704;7.822;2022-08-20T07:45:15;21.40;99.90
46416;DHT22;32620;51.704;7.822;2022-08-20T07:47:43;21.30;99.90
46416;DHT22;32620;51.704;7.822;2022-08-20T07:50:09;21.50;99.90
46416;DHT22;32620;51.704;7.822;2022-08-20T07:52:35;21.70;99.90
46416;DHT22;32620;51.704;7.822;2022-08-20T07:55:01;22.80;99.90
46416;DHT22;32620;51.704;7.822;2022-08-20T07:57:27;24.20;99.90
46416;DHT22;32620;51.704;7.822;2022-08-20T07:59:52;24.80;99.90
46416;DHT22;32620;51.704;7.822;2022-08-20T08:02:17;23.90;99.90
46416;DHT22;32620;51.704;7.822;2022-08-20T08:04:43;23.20;99.90
46416;DHT22;32620;51.704;7.822;2022-08-20T08:07:09;23.40;99.90
46416;DHT22;32620;51.704;7.822;2022-08-20T08:09:35;23.50;99.90
46416;DHT22;32620;51.704;7.822;2022-08-20T08:12:01;23.70;99.90
46416;DHT22;32620;51.704;7.822;2022-08-20T08:14:28;23.70;99.90
46416;DHT22;32620;51.704;7.822;2022-08-20T08:16:57;23.60;99.90
46416;DHT22;32620;51.704;7.822;2022-08-20T08:19:24;23.30;99.90
46416;DHT22;32620;51.704;7.822;2022-08-20T08:21:50;23.00;99.90
46416;DHT22;32620;51.704;7.822;2022-08-20T08:24:15;22.60;99.90
46416;DHT22;32620;51.704;7.822;2022-08-20T08:26:42;22.60;99.90
46416;DHT22;32620;51.704;7.822;2022-08-20T08:29:08;22.60;99.90
46416;DHT22;32620;51.704;7.822;2022-08-20T08:31:34;22.50;99.90
46416;DHT22;32620;51.704;7.822;2022-08-20T08:33:59;22.50;99.90
46416;DHT22;32620;51.704;7.822;2022-08-20T08:36:25;22.20;99.90
46416;DHT22;32620;51.704;7.822;2022-08-20T08:38:51;21.80;99.90
46416;DHT22;32620;51.704;7.822;2022-08-20T08:41:28;21.70;99.90
46416;DHT22;32620;51.704;7.822;2022-08-20T08:43:58;21.80;99.90
46416;DHT22;32620;51.704;7.822;2022-08-20T08:46:26;21.70;99.90
46416;DHT22;32620;51.704;7.822;2022-08-20T08:48:53;21.40;99.90
46416;DHT22;32620;51.704;7.822;2022-08-20T08:51:22;21.40;99.90
46416;DHT22;32620;51.704;7.822;2022-08-20T08:53:51;21.50;99.90
46416;DHT22;32620;51.704;7.822;2022-08-20T08:56:22;21.60;99.90
46416;DHT22;32620;51.704;7.822;2022-08-20T08:58:48;21.90;99.90
46416;DHT22;32620;51.704;7.822;2022-08-20T09:01:15;22.40;99.90
46416;DHT22;32620;51.704;7.822;2022-08-20T09:03:42;23.10;99.90
46416;DHT22;32620;51.704;7.822;2022-08-20T09:06:11;24.10;99.90
46416;DHT22;32620;51.704;7.822;2022-08-20T09:08:38;25.80;99.90
46416;DHT22;32620;51.704;7.822;2022-08-20T09:11:07;25.50;99.90
46416;DHT22;32620;51.704;7.822;2022-08-20T09:13:33;25.10;99.90
46416;DHT22;32620;51.704;7.822;2022-08-20T09:15:59;25.30;99.90
46416;DHT22;32620;51.704;7.822;2022-08-20T09:18:26;26.00;99.90
46416;DHT22;32620;51.704;7.822;2022-08-20T09:20:52;25.40;99.90
46416;DHT22;32620;51.704;7.822;2022-08-20T09:23:17;25.00;99.90
46416;DHT22;32620;51.704;7.822;2022-08-20T09:25:43;24.70;99.90
46416;DHT22;32620;51.704;7.822;2022-08-20T09:28:08;24.70;99.90
46416;DHT22;32620;51.704;7.822;2022-08-20T09:30:34;25.30;99.90
46416;DHT22;32620;51.704;7.822;2022-08-20T09:33:00;26.10;99.90
46416;DHT22;32620;51.704;7.822;2022-08-20T09:35:25;25.90;99.90
46416;DHT22;32620;51.704;7.822;2022-08-20T09:37:51;25.00;99.90
46416;DHT22;32620;51.704;7.822;2022-08-20T09:40:17;24.60;99.90
46416;DHT22;32620;51.704;7.822;2022-08-20T09:42:43;25.30;99.90
46416;DHT22;32620;51.704;7.822;2022-08-20T09:45:09;25.80;99.90
46416;DHT22;32620;51.704;7.822;2022-08-20T09:47:35;26.00;99.90
46416;DHT22;32620;51.704;7.822;2022-08-20T09:50:01;25.30;99.90
46416;DHT22;32620;51.704;7.822;2022-08-20T09:52:27;25.10;99.90
46416;DHT22;32620;51.704;7.822;2022-08-20T09:54:55;25.10;99.90
46416;DHT22;32620;51.704;7.822;2022-08-20T09:57:21;26.40;99.90
46416;DHT22;32620;51.704;7.822;2022-08-20T09:59:49;27.20;99.90
46416;DHT22;32620;51.704;7.822;2022-08-20T10:02:15;28.70;99.90
46416;DHT22;32620;51.704;7.822;2022-08-20T10:04:41;29.50;99.90
46416;DHT22;32620;51.704;7.822;2022-08-20T10:07:07;29.40;99.90
46416;DHT22;32620;51.704;7.822;2022-08-20T10:09:33;29.40;99.90
46416;DHT22;32620;51.704;7.822;2022-08-20T10:11:59;28.60;99.90
46416;DHT22;32620;51.704;7.822;2022-08-20T10:14:25;28.40;99.90
46416;DHT22;32620;51.704;7.822;2022-08-20T10:16:54;28.30;99.90
46416;DHT22;32620;51.704;7.822;2022-08-20T10:19:20;27.80;99.90
46416;DHT22;32620;51.704;7.822;2022-08-20T10:21:45;28.00;99.90
46416;DHT22;32620;51.704;7.822;2022-08-20T10:24:11;28.80;99.90
46416;DHT22;32620;51.704;7.822;2022-08-20T10:26:36;29.40;99.90
46416;DHT22;32620;51.704;7.822;2022-08-20T10:29:02;29.00;99.90
46416;DHT22;32620;51.704;7.822;2022-08-20T10:31:27;29.90;99.90
46416;DHT22;32620;51.704;7.822;2022-08-20T10:33:53;30.50;99.90
46416;DHT22;32620;51.704;7.822;2022-08-20T10:36:18;29.20;99.90
46416;DHT22;32620;51.704;7.822;2022-08-20T10:38:44;28.30;99.90
46416;DHT22;32620;51.704;7.822;2022-08-20T10:41:09;27.90;99.90
46416;DHT22;32620;51.704;7.822;2022-08-20T10:43:35;27.50;99.90
46416;DHT22;32620;51.704;7.822;2022-08-20T10:46:01;27.00;99.90
46416;DHT22;32620;51.704;7.822;2022-08-20T10:48:26;28.00;99.90
46416;DHT22;32620;51.704;7.822;2022-08-20T10:50:52;27.70;99.90
46416;DHT22;32620;51.704;7.822;2022-08-20T10:53:17;27.30;99.90
46416;DHT22;32620;51.704;7.822;2022-08-20T10:55:43;27.70;99.90
46416;DHT22;32620;51.704;7.822;2022-08-20T10:58:09;27.90;99.90
46416;DHT22;32620;51.704;7.822;2022-08-20T11:00:48;28.10;99.90
46416;DHT22;32620;51.704;7.822;2022-08-20T11:03:13;28.00;99.90
46416;DHT22;32620;51.704;7.822;2022-08-20T11:05:39;27.70;99.90
46416;DHT22;32620;51.704;7.822;2022-08-20T11:08:04;28.10;99.90
46416;DHT22;32620;51.704;7.822;2022-08-20T11:10:30;28.20;99.90
46416;DHT22;32620;51.704;7.822;2022-08-20T11:12:57;27.40;99.90
46416;DHT22;32620;51.704;7.822;2022-08-20T11:15:23;27.00;99.90
46416;DHT22;32620;51.704;7.822;2022-08-20T11:17:48;26.50;99.90
46416;DHT22;32620;51.704;7.822;2022-08-20T11:20:16;26.10;99.90
46416;DHT22;32620;51.704;7.822;2022-08-20T11:22:42;26.50;99.90
46416;DHT22;32620;51.704;7.822;2022-08-20T11:25:07;27.10;99.90
46416;DHT22;32620;51.704;7.822;2022-08-20T11:27:35;26.90;99.90
46416;DHT22;32620;51.704;7.822;2022-08-20T11:30:01;26.40;99.90
46416;DHT22;32620;51.704;7.822;2022-08-20T11:32:27;25.70;99.90
46416;DHT22;32620;51.704;7.822;2022-08-20T11:34:52;25.60;99.90
46416;DHT22;32620;51.704;7.822;2022-08-20T11:37:18;25.50;99.90
46416;DHT22;32620;51.704;7.822;2022-08-20T11:39:44;25.20;99.90
46416;DHT22;32620;51.704;7.822;2022-08-20T11:42:10;25.10;99.90
46416;DHT22;32620;51.704;7.822;2022-08-20T11:44:35;24.70;99.90
46416;DHT22;32620;51.704;7.822;2022-08-20T11:47:01;24.50;99.90
46416;DHT22;32620;51.704;7.822;2022-08-20T11:49:29;24.30;99.90
46416;DHT22;32620;51.704;7.822;2022-08-20T11:51:55;24.30;99.90
46416;DHT22;32620;51.704;7.822;2022-08-20T11:54:20;24.20;99.90
46416;DHT22;32620;51.704;7.822;2022-08-20T11:56:45;24.30;99.90
46416;DHT22;32620;51.704;7.822;2022-08-20T11:59:11;24.30;99.90
46416;DHT22;32620;51.704;7.822;2022-08-20T12:01:37;24.10;99.90
46416;DHT22;32620;51.704;7.822;2022-08-20T12:04:03;23.90;99.90
46416;DHT22;32620;51.704;7.822;2022-08-20T12:06:28;23.70;99.90
46416;DHT22;32620;51.704;7.822;2022-08-20T12:08:54;23.40;99.90
46416;DHT22;32620;51.704;7.822;2022-08-20T12:11:19;23.50;99.90
46416;DHT22;32620;51.704;7.822;2022-08-20T12:13:44;23.30;99.90
46416;DHT22;32620;51.704;7.822;2022-08-20T12:16:10;23.10;99.90
46416;DHT22;32620;51.704;7.822;2022-08-20T12:18:35;23.00;99.90
46416;DHT22;32620;51.704;7.822;2022-08-20T12:21:01;23.40;99.90
46416;DHT22;32620;51.704;7.822;2022-08-20T12:23:26;23.70;99.90
46416;DHT22;32620;51.704;7.822;2022-08-20T12:25:52;24.20;99.90
46416;DHT22;32620;51.704;7.822;2022-08-20T12:28:18;24.40;99.90
46416;DHT22;32620;51.704;7.822;2022-08-20T12:30:43;24.90;99.90
46416;DHT22;32620;51.704;7.822;2022-08-20T12:33:09;25.00;99.90
46416;DHT22;32620;51.704;7.822;2022-08-20T12:35:34;25.50;99.90
46416;DHT22;32620;51.704;7.822;2022-08-20T12:38:02;25.60;99.90
46416;DHT22;32620;51.704;7.822;2022-08-20T12:40:28;25.60;99.90
46416;DHT22;32620;51.704;7.822;2022-08-20T12:42:54;25.20;99.90
46416;DHT22;32620;51.704;7.822;2022-08-20T12:45:20;25.00;99.90
46416;DHT22;32620;51.704;7.822;2022-08-20T12:47:46;24.80;99.90
46416;DHT22;32620;51.704;7.822;2022-08-20T12:50:13;24.80;99.90
46416;DHT22;32620;51.704;7.822;2022-08-20T12:52:38;24.80;99.90
46416;DHT22;32620;51.704;7.822;2022-08-20T12:55:05;24.90;99.90
46416;DHT22;32620;51.704;7.822;2022-08-20T12:57:32;25.30;99.90
46416;DHT22;32620;51.704;7.822;2022-08-20T12:59:59;25.30;99.90
46416;DHT22;32620;51.704;7.822;2022-08-20T13:02:25;25.00;99.90
46416;DHT22;32620;51.704;7.822;2022-08-20T13:04:51;25.30;99.90
46416;DHT22;32620;51.704;7.822;2022-08-20T13:07:16;25.70;99.90
46416;DHT22;32620;51.704;7.822;2022-08-20T13:09:42;25.40;99.90
46416;DHT22;32620;51.704;7.822;2022-08-20T13:12:08;25.60;99.90
46416;DHT22;32620;51.704;7.822;2022-08-20T13:14:34;25.30;99.90
46416;DHT22;32620;51.704;7.822;2022-08-20T13:17:00;24.70;99.90
46416;DHT22;32620;51.704;7.822;2022-08-20T13:19:26;24.80;99.90
46416;DHT22;32620;51.704;7.822;2022-08-20T13:21:52;25.00;99.90
46416;DHT22;32620;51.704;7.822;2022-08-20T13:24:18;24.80;99.90
46416;DHT22;32620;51.704;7.822;2022-08-20T13:26:43;24.90;99.90
46416;DHT22;32620;51.704;7.822;2022-08-20T13:29:09;24.70;99.90
46416;DHT22;32620;51.704;7.822;2022-08-20T13:31:34;24.80;99.90
46416;DHT22;32620;51.704;7.822;2022-08-20T13:34:00;25.10;99.90
46416;DHT22;32620;51.704;7.822;2022-08-20T13:36:25;25.30;99.90
46416;DHT22;32620;51.704;7.822;2022-08-20T13:38:51;25.00;99.90
46416;DHT22;32620;51.704;7.822;2022-08-20T13:41:16;25.00;99.90
46416;DHT22;32620;51.704;7.822;2022-08-20T13:43:42;24.60;99.90
46416;DHT22;32620;51.704;7.822;2022-08-20T13:46:07;24.50;99.90
46416;DHT22;32620;51.704;7.822;2022-08-20T13:48:33;24.20;99.90
46416;DHT22;32620;51.704;7.822;2022-08-20T13:50:59;24.10;99.90
46416;DHT22;32620;51.704;7.822;2022-08-20T13:53:24;24.20;99.90
46416;DHT22;32620;51.704;7.822;2022-08-20T13:55:50;24.10;99.90
46416;DHT22;32620;51.704;7.822;2022-08-20T13:58:16;24.00;99.90
46416;DHT22;32620;51.704;7.822;2022-08-20T14:00:42;24.00;99.90
46416;DHT22;32620;51.704;7.822;2022-08-20T14:03:08;24.00;99.90
46416;DHT22;32620;51.704;7.822;2022-08-20T14:05:34;23.90;99.90
46416;DHT22;32620;51.704;7.822;2022-08-20T14:08:10;23.80;99.90
46416;DHT22;32620;51.704;7.822;2022-08-20T14:10:36;23.70;99.90
46416;DHT22;32620;51.704;7.822;2022-08-20T14:13:02;23.90;99.90
46416;DHT22;32620;51.704;7.822;2022-08-20T14:15:28;24.00;99.90
46416;DHT22;32620;51.704;7.822;2022-08-20T14:17:54;24.10;99.90
46416;DHT22;32620;51.704;7.822;2022-08-20T14:20:22;24.20;99.90
46416;DHT22;32620;51.704;7.822;2022-08-20T14:22:48;24.60;99.90
46416;DHT22;32620;51.704;7.822;2022-08-20T14:25:15;25.00;99.90
46416;DHT22;32620;51.704;7.822;2022-08-20T14:27:41;25.40;99.90
46416;DHT22;32620;51.704;7.822;2022-08-20T14:30:08;25.60;99.90
46416;DHT22;32620;51.704;7.822;2022-08-20T14:32:34;25.40;99.90
46416;DHT22;32620;51.704;7.822;2022-08-20T14:34:59;24.90;99.90
46416;DHT22;32620;51.704;7.822;2022-08-20T14:37:28;24.70;99.90
46416;DHT22;32620;51.704;7.822;2022-08-20T14:39:55;24.50;99.90
46416;DHT22;32620;51.704;7.822;2022-08-20T14:42:22;24.30;99.90
46416;DHT22;32620;51.704;7.822;2022-08-20T14:44:48;24.40;99.90
46416;DHT22;32620;51.704;7.822;2022-08-20T14:47:19;24.60;99.90
46416;DHT22;32620;51.704;7.822;2022-08-20T14:49:45;24.60;99.90
46416;DHT22;32620;51.704;7.822;2022-08-20T14:52:11;24.80;99.90
46416;DHT22;32620;51.704;7.822;2022-08-20T14:54:36;24.70;99.90
46416;DHT22;32620;51.704;7.822;2022-08-20T14:57:02;24.60;99.90
46416;DHT22;32620;51.704;7.822;2022-08-20T14:59:28;24.80;99.90
46416;DHT22;32620;51.704;7.822;2022-08-20T15:01:53;24.90;99.90
46416;DHT22;32620;51.704;7.822;2022-08-20T15:04:19;24.90;99.90
46416;DHT22;32620;51.704;7.822;2022-08-20T15:06:45;25.20;99.90
46416;DHT22;32620;51.704;7.822;2022-08-20T15:09:10;25.10;99.90
46416;DHT22;32620;51.704;7.822;2022-08-20T15:11:36;25.00;99.90
46416;DHT22;32620;51.704;7.822;2022-08-20T15:14:04;25.10;99.90
46416;DHT22;32620;51.704;7.822;2022-08-20T15:16:30;25.10;99.90
46416;DHT22;32620;51.704;7.822;2022-08-20T15:18:55;25.10;99.90
46416;DHT22;32620;51.704;7.822;2022-08-20T15:21:21;25.10;99.90
46416;DHT22;32620;51.704;7.822;2022-08-20T15:23:46;25.10;99.90
46416;DHT22;32620;51.704;7.822;2022-08-20T15:26:13;24.90;99.90
46416;DHT22;32620;51.704;7.822;2022-08-20T15:28:38;24.90;99.90